Impacts METAR Board
IDs:

KMSY - New Orleans/Armstron, LA, US

Updated at: 0900 UTC 17 Aug 2018
Potential Impact None Slight Moderate High
Time 16/21Z 16/22Z 16/23Z 17/00Z 17/01Z 17/02Z 17/03Z 17/04Z 17/05Z 17/06Z 17/07Z 17/08Z 17/09Z
Temp89 88 87 86 84 83 83 83 82 82 82 82 79
Dewpt78 77 78 78 78 77 78 78 78 79 79 79 78
Altim30.06 30.07 30.07 30.07 30.08 30.09 30.09 30.09 30.09 30.09 30.09 30.08 30.09
VIS10 10 10 10 10 10 10 10 10 10 10 10 10
CIG250 250 270 270 250 220 -- -- -- -- -- -- --
CoverBKNOVCBKNOVCBKNBKNSCTSCTFEWSCTFEWCLRSCT
FltCatVFRVFRVFRVFRVFRVFRVFRVFRVFRVFRVFRVFRVFR
WX------TS------------------
WDir1501801901801701901801701902001801700
WSpd8 9 6 9 4 3 5 3 4 3 4 4 0
WGst-- -- -- -- -- -- -- -- -- -- -- -- --
Raw hourly METARs
KMSY 162103Z 15008KT 10SM FEW035 BKN250 32/26 A3006 RMK AO2 LTG DSNT W AND NW RAE00 CB DSNT SW-N P0000 T03170256
KMSY 162153Z 18009KT 10SM SCT035 OVC250 31/25 A3007 RMK AO2 LTG DSNT S RAE00 SLP184 CB DSNT SE S AND NW-N P0000 T03110250
KMSY 162253Z 19006KT 10SM FEW030 FEW055 BKN270 31/26 A3007 RMK AO2 LTG DSNT SW SLP185 CB DSNT SW T03060256
KMSY 162353Z 18009KT 10SM TS FEW015CB FEW095 SCT200 OVC270 30/26 A3007 RMK AO2 LTG DSNT NE TSB46 SLP185 OCNL LTGIC N-NE TS N-NE MOV STNRY 60016 T03000256 10328 20289 51005
KMSY 170101Z 17004KT 10SM FEW025 SCT180 BKN250 29/26 A3008 RMK AO2 LTG DSNT NE CB DSNT NE AND E T02890256
KMSY 170153Z 19003KT 10SM FEW028 BKN220 28/25 A3009 RMK AO2 SLP192 T02830250
KMSY 170253Z 18005KT 10SM SCT250 28/26 A3009 RMK AO2 SLP192 T02830256 50006
KMSY 170353Z 17003KT 10SM SCT250 28/26 A3009 RMK AO2 SLP193 T02830256
KMSY 170453Z 19004KT 10SM FEW250 28/26 A3009 RMK AO2 SLP192 T02780256
KMSY 170553Z 20003KT 10SM SCT250 28/26 A3009 RMK AO2 SLP194 T02780261 10300 20278 403280261 51002
KMSY 170653Z 18004KT 10SM FEW225 28/26 A3009 RMK AO2 SLP192 T02780261
KMSY 170753Z 17004KT 10SM CLR 28/26 A3008 RMK AO2 SLP190 T02780261
KMSY 170853Z 00000KT 10SM FEW026 SCT250 26/26 A3009 RMK AO2 SLP192 T02610256 55002



Page loaded:  09:31 UTC  |   02:31 AM Pacific  |   03:31 AM Mountain  |   04:31 AM Central  |   05:31 AM Eastern

 

ADVISORIES

FORECASTS

FORECASTS

OBSERVATIONS

USER TOOLS

ABOUT US